sensor_id;sensor_type;location;lat;lon;timestamp;pressure;altitude;pressure_sealevel;temperature;humidity
48555;BME280;34336;48.270;16.716;2023-11-22T00:00:15;109325.25;;;18.16;94.88
48555;BME280;34336;48.270;16.716;2023-11-22T00:02:41;109325.25;;;18.16;94.87
48555;BME280;34336;48.270;16.716;2023-11-22T00:05:08;109325.25;;;18.16;95.55
48555;BME280;34336;48.270;16.716;2023-11-22T00:07:37;109325.25;;;18.16;96.10
48555;BME280;34336;48.270;16.716;2023-11-22T00:10:05;109325.25;;;18.16;96.11
48555;BME280;34336;48.270;16.716;2023-11-22T00:12:32;109325.25;;;18.16;96.50
48555;BME280;34336;48.270;16.716;2023-11-22T00:15:04;109325.25;;;18.16;96.82
48555;BME280;34336;48.270;16.716;2023-11-22T00:17:33;109325.25;;;18.16;97.57
48555;BME280;34336;48.270;16.716;2023-11-22T00:20:00;109325.25;;;18.16;98.16
48555;BME280;34336;48.270;16.716;2023-11-22T00:22:32;109325.25;;;18.16;98.06
48555;BME280;34336;48.270;16.716;2023-11-22T00:25:02;109325.25;;;18.16;98.01
48555;BME280;34336;48.270;16.716;2023-11-22T00:27:30;109325.25;;;18.16;97.97
48555;BME280;34336;48.270;16.716;2023-11-22T00:29:58;109325.25;;;18.16;97.74
48555;BME280;34336;48.270;16.716;2023-11-22T00:32:25;109325.25;;;18.16;97.85
48555;BME280;34336;48.270;16.716;2023-11-22T00:34:55;109325.25;;;18.16;97.85
48555;BME280;34336;48.270;16.716;2023-11-22T00:37:21;109325.25;;;18.16;97.34
48555;BME280;34336;48.270;16.716;2023-11-22T00:39:48;109325.25;;;18.16;97.11
48555;BME280;34336;48.270;16.716;2023-11-22T00:42:15;109325.25;;;18.16;96.81
48555;BME280;34336;48.270;16.716;2023-11-22T00:44:42;109325.25;;;18.16;96.43
48555;BME280;34336;48.270;16.716;2023-11-22T00:47:09;109325.25;;;18.16;96.77
48555;BME280;34336;48.270;16.716;2023-11-22T00:49:36;109325.25;;;18.16;96.50
48555;BME280;34336;48.270;16.716;2023-11-22T00:52:03;109325.25;;;18.16;96.49
48555;BME280;34336;48.270;16.716;2023-11-22T00:54:30;109325.25;;;18.16;96.84
48555;BME280;34336;48.270;16.716;2023-11-22T00:56:57;109325.25;;;18.16;96.50
48555;BME280;34336;48.270;16.716;2023-11-22T00:59:24;109325.25;;;18.16;96.42
48555;BME280;34336;48.270;16.716;2023-11-22T01:01:50;109325.25;;;18.16;95.75
48555;BME280;34336;48.270;16.716;2023-11-22T01:04:17;109325.25;;;18.16;95.67
48555;BME280;34336;48.270;16.716;2023-11-22T01:06:44;109325.25;;;18.16;95.83
48555;BME280;34336;48.270;16.716;2023-11-22T01:09:11;109325.25;;;18.16;95.44
48555;BME280;34336;48.270;16.716;2023-11-22T01:11:40;109325.25;;;18.16;95.89
48555;BME280;34336;48.270;16.716;2023-11-22T01:14:07;109325.25;;;18.16;96.13
48555;BME280;34336;48.270;16.716;2023-11-22T01:16:34;109325.25;;;18.16;96.11
48555;BME280;34336;48.270;16.716;2023-11-22T01:19:03;109325.25;;;18.16;95.82
48555;BME280;34336;48.270;16.716;2023-11-22T01:21:30;109325.25;;;18.16;95.86
48555;BME280;34336;48.270;16.716;2023-11-22T01:23:57;109325.25;;;18.16;95.85
48555;BME280;34336;48.270;16.716;2023-11-22T01:26:25;109325.25;;;18.16;95.57
48555;BME280;34336;48.270;16.716;2023-11-22T01:28:52;109325.25;;;18.16;95.71
48555;BME280;34336;48.270;16.716;2023-11-22T01:31:19;109325.25;;;18.16;95.23
48555;BME280;34336;48.270;16.716;2023-11-22T01:33:50;109325.25;;;18.16;95.41
48555;BME280;34336;48.270;16.716;2023-11-22T01:36:16;109325.25;;;18.16;94.32
48555;BME280;34336;48.270;16.716;2023-11-22T01:38:43;109325.25;;;18.16;94.67
48555;BME280;34336;48.270;16.716;2023-11-22T01:41:11;109325.25;;;18.16;94.32
48555;BME280;34336;48.270;16.716;2023-11-22T01:43:40;109325.25;;;18.16;94.57
48555;BME280;34336;48.270;16.716;2023-11-22T01:46:08;109325.25;;;18.16;94.23
48555;BME280;34336;48.270;16.716;2023-11-22T01:48:37;109325.25;;;18.16;94.41
48555;BME280;34336;48.270;16.716;2023-11-22T01:51:04;109325.25;;;18.16;94.32
48555;BME280;34336;48.270;16.716;2023-11-22T01:53:35;109325.25;;;18.16;93.78
48555;BME280;34336;48.270;16.716;2023-11-22T01:56:02;109325.25;;;18.16;93.60
48555;BME280;34336;48.270;16.716;2023-11-22T01:58:29;109325.25;;;18.16;93.59
48555;BME280;34336;48.270;16.716;2023-11-22T02:00:57;109325.25;;;18.16;93.25
48555;BME280;34336;48.270;16.716;2023-11-22T02:03:24;109325.25;;;18.16;93.11
48555;BME280;34336;48.270;16.716;2023-11-22T02:05:51;109325.25;;;18.16;90.34
48555;BME280;34336;48.270;16.716;2023-11-22T02:08:21;109325.25;;;18.16;88.41
48555;BME280;34336;48.270;16.716;2023-11-22T02:10:58;109325.25;;;18.16;85.96
48555;BME280;34336;48.270;16.716;2023-11-22T02:13:29;109325.25;;;18.16;84.77
48555;BME280;34336;48.270;16.716;2023-11-22T02:15:56;109325.25;;;18.16;84.10
48555;BME280;34336;48.270;16.716;2023-11-22T02:18:23;109325.25;;;18.16;82.60
48555;BME280;34336;48.270;16.716;2023-11-22T02:20:50;109325.25;;;18.16;81.73
48555;BME280;34336;48.270;16.716;2023-11-22T02:23:17;109325.25;;;18.16;81.68
48555;BME280;34336;48.270;16.716;2023-11-22T02:25:44;109325.25;;;18.16;82.27
48555;BME280;34336;48.270;16.716;2023-11-22T02:28:14;109325.25;;;18.16;82.76
48555;BME280;34336;48.270;16.716;2023-11-22T02:30:41;109325.25;;;18.16;83.56
48555;BME280;34336;48.270;16.716;2023-11-22T02:33:08;109325.25;;;18.16;84.00
48555;BME280;34336;48.270;16.716;2023-11-22T02:35:35;109325.25;;;18.16;84.05
48555;BME280;34336;48.270;16.716;2023-11-22T02:38:02;109325.25;;;18.16;83.64
48555;BME280;34336;48.270;16.716;2023-11-22T02:40:29;109325.25;;;18.16;82.05
48555;BME280;34336;48.270;16.716;2023-11-22T02:42:56;109325.25;;;18.16;82.00
48555;BME280;34336;48.270;16.716;2023-11-22T02:45:26;109325.25;;;18.16;81.26
48555;BME280;34336;48.270;16.716;2023-11-22T02:47:53;109325.25;;;18.16;80.13
48555;BME280;34336;48.270;16.716;2023-11-22T02:50:20;109325.25;;;18.16;79.40
48555;BME280;34336;48.270;16.716;2023-11-22T02:52:47;109325.25;;;18.16;79.10
48555;BME280;34336;48.270;16.716;2023-11-22T02:55:14;109325.25;;;18.16;78.24
48555;BME280;34336;48.270;16.716;2023-11-22T02:57:41;109325.25;;;18.16;77.83
48555;BME280;34336;48.270;16.716;2023-11-22T03:00:09;109325.25;;;18.16;77.53
48555;BME280;34336;48.270;16.716;2023-11-22T03:02:40;109325.25;;;18.16;77.81
48555;BME280;34336;48.270;16.716;2023-11-22T03:05:09;109325.25;;;18.16;77.95
48555;BME280;34336;48.270;16.716;2023-11-22T03:07:43;109325.25;;;18.16;77.18
48555;BME280;34336;48.270;16.716;2023-11-22T03:10:10;109325.25;;;18.16;77.11
48555;BME280;34336;48.270;16.716;2023-11-22T03:12:37;109325.25;;;18.16;77.06
48555;BME280;34336;48.270;16.716;2023-11-22T03:15:05;109325.25;;;18.16;77.48
48555;BME280;34336;48.270;16.716;2023-11-22T03:17:32;109325.25;;;18.16;78.71
48555;BME280;34336;48.270;16.716;2023-11-22T03:20:02;109325.25;;;18.16;78.40
48555;BME280;34336;48.270;16.716;2023-11-22T03:22:29;109325.25;;;18.16;79.07
48555;BME280;34336;48.270;16.716;2023-11-22T03:24:59;109325.25;;;18.16;79.51
48555;BME280;34336;48.270;16.716;2023-11-22T03:27:26;109325.25;;;18.16;79.88
48555;BME280;34336;48.270;16.716;2023-11-22T03:29:53;109325.25;;;18.16;79.33
48555;BME280;34336;48.270;16.716;2023-11-22T03:32:21;109325.25;;;18.16;76.82
48555;BME280;34336;48.270;16.716;2023-11-22T03:34:48;109325.25;;;18.16;75.85
48555;BME280;34336;48.270;16.716;2023-11-22T03:37:15;109325.25;;;18.16;75.89
48555;BME280;34336;48.270;16.716;2023-11-22T03:39:43;109325.25;;;18.16;76.09
48555;BME280;34336;48.270;16.716;2023-11-22T03:42:18;109325.25;;;18.16;75.86
48555;BME280;34336;48.270;16.716;2023-11-22T03:44:45;109325.25;;;18.16;75.50
48555;BME280;34336;48.270;16.716;2023-11-22T03:47:11;109325.25;;;18.16;75.04
48555;BME280;34336;48.270;16.716;2023-11-22T03:49:44;109325.25;;;18.16;75.05
48555;BME280;34336;48.270;16.716;2023-11-22T03:52:11;109325.25;;;18.16;75.30
48555;BME280;34336;48.270;16.716;2023-11-22T03:54:38;109325.25;;;18.16;75.21
48555;BME280;34336;48.270;16.716;2023-11-22T03:57:05;109325.25;;;18.16;75.78
48555;BME280;34336;48.270;16.716;2023-11-22T03:59:34;109325.25;;;18.16;75.76
48555;BME280;34336;48.270;16.716;2023-11-22T04:02:01;109325.25;;;18.16;76.38
48555;BME280;34336;48.270;16.716;2023-11-22T04:04:28;109325.25;;;18.16;77.13
48555;BME280;34336;48.270;16.716;2023-11-22T04:06:54;109325.25;;;18.16;77.61
48555;BME280;34336;48.270;16.716;2023-11-22T04:09:22;109325.25;;;18.16;78.30
48555;BME280;34336;48.270;16.716;2023-11-22T04:11:49;109325.25;;;18.16;79.28
48555;BME280;34336;48.270;16.716;2023-11-22T04:14:15;109325.25;;;18.16;79.68
48555;BME280;34336;48.270;16.716;2023-11-22T04:16:42;109325.25;;;18.16;79.10
48555;BME280;34336;48.270;16.716;2023-11-22T04:19:10;109325.25;;;18.16;79.67
48555;BME280;34336;48.270;16.716;2023-11-22T04:21:37;109325.25;;;18.16;79.54
48555;BME280;34336;48.270;16.716;2023-11-22T04:24:04;109325.25;;;18.16;78.77
48555;BME280;34336;48.270;16.716;2023-11-22T04:26:31;109325.25;;;18.16;78.36
48555;BME280;34336;48.270;16.716;2023-11-22T04:28:58;109325.25;;;18.16;77.71
48555;BME280;34336;48.270;16.716;2023-11-22T04:31:25;109325.25;;;18.16;76.58
48555;BME280;34336;48.270;16.716;2023-11-22T04:33:52;109325.25;;;18.16;75.60
48555;BME280;34336;48.270;16.716;2023-11-22T04:36:19;109325.25;;;18.16;74.86
48555;BME280;34336;48.270;16.716;2023-11-22T04:38:48;109325.25;;;18.16;75.52
48555;BME280;34336;48.270;16.716;2023-11-22T04:41:16;109325.25;;;18.16;75.82
48555;BME280;34336;48.270;16.716;2023-11-22T04:43:45;109325.25;;;18.16;76.08
48555;BME280;34336;48.270;16.716;2023-11-22T04:46:11;109325.25;;;18.16;76.32
48555;BME280;34336;48.270;16.716;2023-11-22T04:48:39;109325.25;;;18.16;76.66
48555;BME280;34336;48.270;16.716;2023-11-22T04:51:07;109325.25;;;18.16;76.87
48555;BME280;34336;48.270;16.716;2023-11-22T04:53:34;109325.25;;;18.16;76.63
48555;BME280;34336;48.270;16.716;2023-11-22T04:56:01;109325.25;;;18.16;76.28
48555;BME280;34336;48.270;16.716;2023-11-22T04:58:33;109325.25;;;18.16;76.12
48555;BME280;34336;48.270;16.716;2023-11-22T05:01:00;109325.25;;;18.16;76.76
48555;BME280;34336;48.270;16.716;2023-11-22T05:03:28;109325.25;;;18.16;76.81
48555;BME280;34336;48.270;16.716;2023-11-22T05:05:55;109325.25;;;18.16;77.38
48555;BME280;34336;48.270;16.716;2023-11-22T05:08:22;109325.25;;;18.16;78.03
48555;BME280;34336;48.270;16.716;2023-11-22T05:10:49;109325.25;;;18.16;78.28
48555;BME280;34336;48.270;16.716;2023-11-22T05:13:15;109325.25;;;18.16;77.71
48555;BME280;34336;48.270;16.716;2023-11-22T05:15:42;109325.25;;;18.16;76.03
48555;BME280;34336;48.270;16.716;2023-11-22T05:18:09;109325.25;;;18.16;76.58
48555;BME280;34336;48.270;16.716;2023-11-22T05:20:36;109325.25;;;18.16;75.74
48555;BME280;34336;48.270;16.716;2023-11-22T05:23:03;109325.25;;;18.16;75.74
48555;BME280;34336;48.270;16.716;2023-11-22T05:25:31;109325.25;;;18.16;75.87
48555;BME280;34336;48.270;16.716;2023-11-22T05:27:58;109325.25;;;18.16;76.21
48555;BME280;34336;48.270;16.716;2023-11-22T05:30:25;109325.25;;;18.16;76.68
48555;BME280;34336;48.270;16.716;2023-11-22T05:32:52;109325.25;;;18.16;76.73
48555;BME280;34336;48.270;16.716;2023-11-22T05:35:19;109325.25;;;18.16;77.82
48555;BME280;34336;48.270;16.716;2023-11-22T05:37:47;109325.25;;;18.16;77.47
48555;BME280;34336;48.270;16.716;2023-11-22T05:40:14;109325.25;;;18.16;76.68
48555;BME280;34336;48.270;16.716;2023-11-22T05:42:42;109325.25;;;18.16;75.18
48555;BME280;34336;48.270;16.716;2023-11-22T05:45:09;109325.25;;;18.16;75.15
48555;BME280;34336;48.270;16.716;2023-11-22T05:47:36;109325.25;;;18.16;74.97
48555;BME280;34336;48.270;16.716;2023-11-22T05:50:05;109325.25;;;18.16;74.29
48555;BME280;34336;48.270;16.716;2023-11-22T05:52:32;109325.25;;;18.16;73.94
48555;BME280;34336;48.270;16.716;2023-11-22T05:54:59;109325.25;;;18.16;73.91
48555;BME280;34336;48.270;16.716;2023-11-22T05:57:30;109325.25;;;18.16;74.14
48555;BME280;34336;48.270;16.716;2023-11-22T05:59:57;109325.25;;;18.16;72.83
48555;BME280;34336;48.270;16.716;2023-11-22T06:02:24;109325.25;;;18.16;72.82
48555;BME280;34336;48.270;16.716;2023-11-22T06:04:51;109325.25;;;18.16;72.31
48555;BME280;34336;48.270;16.716;2023-11-22T06:07:17;109325.25;;;18.16;72.14
48555;BME280;34336;48.270;16.716;2023-11-22T06:09:44;109325.25;;;18.16;71.72
48555;BME280;34336;48.270;16.716;2023-11-22T06:12:11;109325.25;;;18.16;71.98
48555;BME280;34336;48.270;16.716;2023-11-22T06:14:38;109325.25;;;18.16;72.41
48555;BME280;34336;48.270;16.716;2023-11-22T06:17:05;109325.25;;;18.16;71.90
48555;BME280;34336;48.270;16.716;2023-11-22T06:19:31;109325.25;;;18.16;72.51
48555;BME280;34336;48.270;16.716;2023-11-22T06:21:58;109325.25;;;18.16;72.01
48555;BME280;34336;48.270;16.716;2023-11-22T06:24:25;109325.25;;;18.16;71.88
48555;BME280;34336;48.270;16.716;2023-11-22T06:26:53;109325.25;;;18.16;71.98
48555;BME280;34336;48.270;16.716;2023-11-22T06:29:20;109325.25;;;18.16;71.75
48555;BME280;34336;48.270;16.716;2023-11-22T06:31:46;109325.25;;;18.16;71.86
48555;BME280;34336;48.270;16.716;2023-11-22T06:34:13;109325.25;;;18.16;71.55
48555;BME280;34336;48.270;16.716;2023-11-22T06:36:40;109325.25;;;18.16;71.95
48555;BME280;34336;48.270;16.716;2023-11-22T06:39:07;109325.25;;;18.16;71.59
48555;BME280;34336;48.270;16.716;2023-11-22T06:41:35;109325.25;;;18.16;71.13
48555;BME280;34336;48.270;16.716;2023-11-22T06:44:02;109325.25;;;18.16;71.40
48555;BME280;34336;48.270;16.716;2023-11-22T06:46:30;109325.25;;;18.16;72.27
48555;BME280;34336;48.270;16.716;2023-11-22T06:48:56;109325.25;;;18.16;72.62
48555;BME280;34336;48.270;16.716;2023-11-22T06:51:24;109325.25;;;18.16;72.38
48555;BME280;34336;48.270;16.716;2023-11-22T06:53:50;109325.25;;;18.16;71.33
48555;BME280;34336;48.270;16.716;2023-11-22T06:56:23;109325.25;;;18.16;71.19
48555;BME280;34336;48.270;16.716;2023-11-22T06:58:49;109325.25;;;18.16;70.07
48555;BME280;34336;48.270;16.716;2023-11-22T07:01:17;109325.25;;;18.16;70.44
48555;BME280;34336;48.270;16.716;2023-11-22T07:03:44;109325.25;;;18.16;70.27
48555;BME280;34336;48.270;16.716;2023-11-22T07:06:11;109325.25;;;18.16;69.26
48555;BME280;34336;48.270;16.716;2023-11-22T07:08:38;109325.25;;;18.16;69.29
48555;BME280;34336;48.270;16.716;2023-11-22T07:11:05;109325.25;;;18.16;70.42
48555;BME280;34336;48.270;16.716;2023-11-22T07:13:36;109325.25;;;18.16;69.09
48555;BME280;34336;48.270;16.716;2023-11-22T07:16:05;109325.25;;;18.16;68.65
48555;BME280;34336;48.270;16.716;2023-11-22T07:18:33;109325.25;;;18.16;68.02
48555;BME280;34336;48.270;16.716;2023-11-22T07:21:00;109325.25;;;18.16;68.40
48555;BME280;34336;48.270;16.716;2023-11-22T07:23:27;109325.25;;;18.16;67.70
48555;BME280;34336;48.270;16.716;2023-11-22T07:25:55;109325.25;;;18.16;67.00
48555;BME280;34336;48.270;16.716;2023-11-22T07:28:22;109325.25;;;18.16;67.05
48555;BME280;34336;48.270;16.716;2023-11-22T07:30:49;109325.25;;;18.16;66.86
48555;BME280;34336;48.270;16.716;2023-11-22T07:33:16;109325.25;;;18.16;66.51
48555;BME280;34336;48.270;16.716;2023-11-22T07:35:43;109325.25;;;18.16;66.00
48555;BME280;34336;48.270;16.716;2023-11-22T07:38:09;109325.25;;;18.16;65.68
48555;BME280;34336;48.270;16.716;2023-11-22T07:40:38;109325.25;;;18.16;64.33
48555;BME280;34336;48.270;16.716;2023-11-22T07:43:05;109325.25;;;18.16;63.50
48555;BME280;34336;48.270;16.716;2023-11-22T07:45:32;109325.25;;;18.16;63.37
48555;BME280;34336;48.270;16.716;2023-11-22T07:47:58;109325.25;;;18.16;63.90
48555;BME280;34336;48.270;16.716;2023-11-22T07:50:30;109325.25;;;18.16;64.56
48555;BME280;34336;48.270;16.716;2023-11-22T07:52:56;109325.25;;;18.16;64.68
48555;BME280;34336;48.270;16.716;2023-11-22T07:55:23;109325.25;;;18.16;64.89
48555;BME280;34336;48.270;16.716;2023-11-22T07:57:50;109325.25;;;18.16;65.17
48555;BME280;34336;48.270;16.716;2023-11-22T08:00:18;109325.25;;;18.16;64.11
48555;BME280;34336;48.270;16.716;2023-11-22T08:02:46;109325.25;;;18.16;64.06
48555;BME280;34336;48.270;16.716;2023-11-22T08:05:13;109325.25;;;18.16;64.30
48555;BME280;34336;48.270;16.716;2023-11-22T08:07:43;109325.25;;;18.16;64.72
48555;BME280;34336;48.270;16.716;2023-11-22T08:10:15;109325.25;;;18.16;63.06
48555;BME280;34336;48.270;16.716;2023-11-22T08:12:52;109325.25;;;18.16;63.36
48555;BME280;34336;48.270;16.716;2023-11-22T08:15:18;109325.25;;;18.16;63.50
48555;BME280;34336;48.270;16.716;2023-11-22T08:17:46;109325.25;;;18.16;63.68
48555;BME280;34336;48.270;16.716;2023-11-22T08:20:13;109325.25;;;18.16;62.75
48555;BME280;34336;48.270;16.716;2023-11-22T08:22:45;109325.25;;;18.16;63.10
48555;BME280;34336;48.270;16.716;2023-11-22T08:25:17;109325.25;;;18.16;63.22
48555;BME280;34336;48.270;16.716;2023-11-22T08:27:45;109325.25;;;18.16;63.14
48555;BME280;34336;48.270;16.716;2023-11-22T08:30:11;109325.25;;;18.16;63.30
48555;BME280;34336;48.270;16.716;2023-11-22T08:32:43;109325.25;;;18.16;63.45
48555;BME280;34336;48.270;16.716;2023-11-22T08:35:10;109325.25;;;18.16;63.52
48555;BME280;34336;48.270;16.716;2023-11-22T08:37:39;109325.25;;;18.16;63.66
48555;BME280;34336;48.270;16.716;2023-11-22T08:40:09;109325.25;;;18.16;63.78
48555;BME280;34336;48.270;16.716;2023-11-22T08:42:38;109325.25;;;18.16;63.35
48555;BME280;34336;48.270;16.716;2023-11-22T08:45:05;109325.25;;;18.16;63.69
48555;BME280;34336;48.270;16.716;2023-11-22T08:47:32;109325.25;;;18.16;63.39
48555;BME280;34336;48.270;16.716;2023-11-22T08:49:59;109325.25;;;18.16;63.12
48555;BME280;34336;48.270;16.716;2023-11-22T08:52:25;109325.25;;;18.16;63.48
48555;BME280;34336;48.270;16.716;2023-11-22T08:54:52;109325.25;;;18.16;64.40
48555;BME280;34336;48.270;16.716;2023-11-22T08:57:19;109325.25;;;18.16;64.15
48555;BME280;34336;48.270;16.716;2023-11-22T08:59:47;109325.25;;;18.16;63.57
48555;BME280;34336;48.270;16.716;2023-11-22T09:02:14;109325.25;;;18.16;63.73
48555;BME280;34336;48.270;16.716;2023-11-22T09:04:41;109325.25;;;18.16;63.64
48555;BME280;34336;48.270;16.716;2023-11-22T09:07:08;109325.25;;;18.16;63.93
48555;BME280;34336;48.270;16.716;2023-11-22T09:09:36;109325.25;;;18.16;63.68
48555;BME280;34336;48.270;16.716;2023-11-22T09:12:03;109325.25;;;18.16;64.09
48555;BME280;34336;48.270;16.716;2023-11-22T09:14:40;109325.25;;;18.16;64.96
48555;BME280;34336;48.270;16.716;2023-11-22T09:17:08;109325.25;;;18.16;64.22
48555;BME280;34336;48.270;16.716;2023-11-22T09:19:36;109325.25;;;18.16;64.38
48555;BME280;34336;48.270;16.716;2023-11-22T09:22:06;109325.25;;;18.16;63.74
48555;BME280;34336;48.270;16.716;2023-11-22T09:24:33;109325.25;;;18.16;64.11
48555;BME280;34336;48.270;16.716;2023-11-22T09:27:03;109325.25;;;18.16;64.25
48555;BME280;34336;48.270;16.716;2023-11-22T09:29:32;109325.25;;;18.16;64.06
48555;BME280;34336;48.270;16.716;2023-11-22T09:32:02;109325.25;;;18.16;64.18
48555;BME280;34336;48.270;16.716;2023-11-22T09:34:28;109325.25;;;18.16;64.20
48555;BME280;34336;48.270;16.716;2023-11-22T09:36:57;109325.25;;;18.16;64.43
48555;BME280;34336;48.270;16.716;2023-11-22T09:39:23;109325.25;;;18.16;63.89
48555;BME280;34336;48.270;16.716;2023-11-22T09:41:51;109325.25;;;18.16;63.41
48555;BME280;34336;48.270;16.716;2023-11-22T09:44:20;109325.25;;;18.16;63.38
48555;BME280;34336;48.270;16.716;2023-11-22T09:46:51;109325.25;;;18.16;64.15
48555;BME280;34336;48.270;16.716;2023-11-22T09:49:20;109325.25;;;18.16;64.05
48555;BME280;34336;48.270;16.716;2023-11-22T09:51:54;109325.25;;;18.16;64.14
48555;BME280;34336;48.270;16.716;2023-11-22T09:54:23;109325.25;;;18.16;64.38
48555;BME280;34336;48.270;16.716;2023-11-22T09:56:58;109325.25;;;18.16;64.16
48555;BME280;34336;48.270;16.716;2023-11-22T09:59:28;109325.25;;;18.16;65.53
48555;BME280;34336;48.270;16.716;2023-11-22T10:01:55;109325.25;;;18.16;66.38
48555;BME280;34336;48.270;16.716;2023-11-22T10:04:22;109325.25;;;18.16;66.11
48555;BME280;34336;48.270;16.716;2023-11-22T10:06:51;109325.25;;;18.16;66.08
48555;BME280;34336;48.270;16.716;2023-11-22T10:09:18;109325.25;;;18.16;65.50
48555;BME280;34336;48.270;16.716;2023-11-22T10:11:45;109325.25;;;18.16;65.62
48555;BME280;34336;48.270;16.716;2023-11-22T10:14:22;109325.25;;;18.16;64.98
48555;BME280;34336;48.270;16.716;2023-11-22T10:17:02;109325.25;;;18.16;65.12
48555;BME280;34336;48.270;16.716;2023-11-22T10:19:29;109325.25;;;18.16;64.35
48555;BME280;34336;48.270;16.716;2023-11-22T10:22:05;109325.25;;;18.16;65.02
48555;BME280;34336;48.270;16.716;2023-11-22T10:24:34;109325.25;;;18.16;64.23
48555;BME280;34336;48.270;16.716;2023-11-22T10:27:02;109325.25;;;18.16;64.57
48555;BME280;34336;48.270;16.716;2023-11-22T10:29:29;109325.25;;;18.16;64.94
48555;BME280;34336;48.270;16.716;2023-11-22T10:31:56;109325.25;;;18.16;64.30
48555;BME280;34336;48.270;16.716;2023-11-22T10:34:24;109325.25;;;18.16;64.23
48555;BME280;34336;48.270;16.716;2023-11-22T10:36:51;109325.25;;;18.16;64.13
48555;BME280;34336;48.270;16.716;2023-11-22T10:39:22;109325.25;;;18.16;64.22
48555;BME280;34336;48.270;16.716;2023-11-22T10:41:50;109325.25;;;18.16;64.72
48555;BME280;34336;48.270;16.716;2023-11-22T10:44:19;109325.25;;;18.16;63.61
48555;BME280;34336;48.270;16.716;2023-11-22T10:46:47;109325.25;;;18.16;62.87
48555;BME280;34336;48.270;16.716;2023-11-22T10:49:14;109325.25;;;18.16;62.27
48555;BME280;34336;48.270;16.716;2023-11-22T10:51:44;109325.25;;;18.16;62.30
48555;BME280;34336;48.270;16.716;2023-11-22T10:54:15;109325.25;;;18.16;62.03
48555;BME280;34336;48.270;16.716;2023-11-22T10:56:46;109325.25;;;18.16;61.55
48555;BME280;34336;48.270;16.716;2023-11-22T10:59:13;109325.25;;;18.16;62.50
48555;BME280;34336;48.270;16.716;2023-11-22T11:01:45;109325.25;;;18.16;61.21
48555;BME280;34336;48.270;16.716;2023-11-22T11:04:23;109325.25;;;18.16;61.66
48555;BME280;34336;48.270;16.716;2023-11-22T11:06:54;109325.25;;;18.16;61.08
48555;BME280;34336;48.270;16.716;2023-11-22T11:09:22;109325.25;;;18.16;61.57
48555;BME280;34336;48.270;16.716;2023-11-22T11:11:53;109325.25;;;18.16;62.42
48555;BME280;34336;48.270;16.716;2023-11-22T11:14:21;109325.25;;;18.16;61.66
48555;BME280;34336;48.270;16.716;2023-11-22T11:16:48;109325.25;;;18.16;61.83
48555;BME280;34336;48.270;16.716;2023-11-22T11:19:17;109325.25;;;18.16;62.43
48555;BME280;34336;48.270;16.716;2023-11-22T11:21:44;109325.25;;;18.16;62.49
48555;BME280;34336;48.270;16.716;2023-11-22T11:24:11;109325.25;;;18.16;62.66
48555;BME280;34336;48.270;16.716;2023-11-22T11:26:38;109325.25;;;18.16;62.38
48555;BME280;34336;48.270;16.716;2023-11-22T11:29:05;109325.25;;;18.16;63.18
48555;BME280;34336;48.270;16.716;2023-11-22T11:31:38;109325.25;;;18.16;62.40
48555;BME280;34336;48.270;16.716;2023-11-22T11:34:07;109325.25;;;18.16;62.41
48555;BME280;34336;48.270;16.716;2023-11-22T11:36:37;109325.25;;;18.16;63.16
48555;BME280;34336;48.270;16.716;2023-11-22T11:39:06;109325.25;;;18.16;63.93
48555;BME280;34336;48.270;16.716;2023-11-22T11:41:38;109325.25;;;18.16;62.72
48555;BME280;34336;48.270;16.716;2023-11-22T11:44:09;109325.25;;;18.16;62.38
48555;BME280;34336;48.270;16.716;2023-11-22T11:46:38;109325.25;;;18.16;62.73
48555;BME280;34336;48.270;16.716;2023-11-22T11:49:09;109325.25;;;18.16;63.78
48555;BME280;34336;48.270;16.716;2023-11-22T11:51:39;109325.25;;;18.16;63.69
48555;BME280;34336;48.270;16.716;2023-11-22T11:54:06;109325.25;;;18.16;63.98
48555;BME280;34336;48.270;16.716;2023-11-22T11:56:36;109325.25;;;18.16;64.62
48555;BME280;34336;48.270;16.716;2023-11-22T11:59:04;109325.25;;;18.16;64.52
48555;BME280;34336;48.270;16.716;2023-11-22T12:01:31;109325.25;;;18.16;64.74
48555;BME280;34336;48.270;16.716;2023-11-22T12:04:03;109325.25;;;18.16;63.64
48555;BME280;34336;48.270;16.716;2023-11-22T12:06:31;109325.25;;;18.16;63.95
48555;BME280;34336;48.270;16.716;2023-11-22T12:09:00;109325.25;;;18.16;64.49
48555;BME280;34336;48.270;16.716;2023-11-22T12:11:27;109325.25;;;18.16;64.80
48555;BME280;34336;48.270;16.716;2023-11-22T12:13:57;109325.25;;;18.16;65.07
48555;BME280;34336;48.270;16.716;2023-11-22T12:16:25;109325.25;;;18.16;64.92
48555;BME280;34336;48.270;16.716;2023-11-22T12:18:54;109325.25;;;18.16;65.31
48555;BME280;34336;48.270;16.716;2023-11-22T12:21:21;109325.25;;;18.16;65.17
48555;BME280;34336;48.270;16.716;2023-11-22T12:23:48;109325.25;;;18.16;65.25
48555;BME280;34336;48.270;16.716;2023-11-22T12:26:17;109325.25;;;18.16;66.20
48555;BME280;34336;48.270;16.716;2023-11-22T12:28:46;109325.25;;;18.16;66.17
48555;BME280;34336;48.270;16.716;2023-11-22T12:31:29;109325.25;;;18.16;66.09
48555;BME280;34336;48.270;16.716;2023-11-22T12:34:02;109325.25;;;18.16;65.56
48555;BME280;34336;48.270;16.716;2023-11-22T12:36:29;109325.25;;;18.16;65.28
48555;BME280;34336;48.270;16.716;2023-11-22T12:38:56;109325.25;;;18.16;65.53
48555;BME280;34336;48.270;16.716;2023-11-22T12:41:26;109325.25;;;18.16;65.98
48555;BME280;34336;48.270;16.716;2023-11-22T12:44:06;109325.25;;;18.16;65.38